createdAt,value
2022-08-25T00:01:30.017Z,101044.19
2022-08-25T00:04:53.778Z,101039.13
2022-08-25T00:08:16.007Z,101045.63
2022-08-25T00:11:38.007Z,101039.94
2022-08-25T00:14:58.990Z,101041.75
2022-08-25T00:18:20.151Z,101043.59
2022-08-25T00:21:41.981Z,101040.75
2022-08-25T00:25:03.013Z,101037.88
2022-08-25T00:28:23.998Z,101042.97
2022-08-25T00:31:45.059Z,101045.00
2022-08-25T00:35:06.991Z,101040.75
2022-08-25T00:38:28.022Z,101043.41
2022-08-25T00:41:50.012Z,101041.13
2022-08-25T00:45:11.004Z,101034.63
2022-08-25T00:48:32.002Z,101040.94
2022-08-25T00:52:01.021Z,101038.91
2022-08-25T00:55:34.012Z,101040.13
2022-08-25T00:58:56.020Z,101034.63
2022-08-25T01:02:19.045Z,101039.69
2022-08-25T01:05:42.057Z,101041.75
2022-08-25T01:09:04.011Z,101043.56
2022-08-25T01:12:25.037Z,101033.81
2022-08-25T01:15:49.070Z,101042.94
2022-08-25T01:19:15.556Z,101035.41
2022-08-25T01:22:35.994Z,101026.28
2022-08-25T01:26:10.016Z,101035.00
2022-08-25T01:29:33.040Z,101027.69
2022-08-25T01:32:54.030Z,101028.25
2022-08-25T01:36:15.031Z,101028.66
2022-08-25T01:39:37.069Z,101028.84
2022-08-25T01:43:26.034Z,101030.25
2022-08-25T01:46:47.018Z,101027.81
2022-08-25T01:50:08.037Z,101035.13
2022-08-25T01:53:42.029Z,101031.66
2022-08-25T01:57:03.036Z,101028.19
2022-08-25T02:00:25.044Z,101028.03
2022-08-25T02:03:46.409Z,101028.19
2022-08-25T02:07:10.024Z,101034.72
2022-08-25T02:10:31.038Z,101036.34
2022-08-25T02:13:53.047Z,101040.41
2022-08-25T02:17:14.058Z,101037.59
2022-08-25T02:20:35.037Z,101037.38
2022-08-25T02:23:56.038Z,101032.72
2022-08-25T02:27:17.075Z,101046.97
2022-08-25T02:30:38.192Z,101042.94
2022-08-25T02:33:59.020Z,101040.91
2022-08-25T02:37:21.050Z,101037.44
2022-08-25T02:40:42.041Z,101038.28
2022-08-25T02:44:04.040Z,101044.34
2022-08-25T02:47:27.026Z,101037.84
2022-08-25T02:50:41.053Z,101040.50
2022-08-25T02:54:04.035Z,101031.56
2022-08-25T02:57:25.070Z,101032.78
2022-08-25T03:00:46.168Z,101035.66
2022-08-25T03:04:07.054Z,101037.28
2022-08-25T03:07:28.106Z,101037.28
2022-08-25T03:10:54.058Z,101029.56
2022-08-25T03:14:15.075Z,101033.03
2022-08-25T03:17:36.067Z,101033.81
2022-08-25T03:20:57.057Z,101037.09
2022-08-25T03:24:19.064Z,101037.69
2022-08-25T03:27:40.074Z,101026.72
2022-08-25T03:31:01.062Z,101026.31
2022-08-25T03:34:23.099Z,101028.75
2022-08-25T03:37:44.055Z,101028.53
2022-08-25T03:41:06.098Z,101023.81
2022-08-25T03:44:28.049Z,101019.13
2022-08-25T03:47:49.060Z,101022.34
2022-08-25T03:51:10.048Z,101018.44
2022-08-25T03:54:35.061Z,101028.56
2022-08-25T03:57:56.059Z,101016.75
2022-08-25T04:01:18.217Z,101021.59
2022-08-25T04:04:39.079Z,101019.53
2022-08-25T04:08:00.187Z,101013.19
2022-08-25T04:11:27.088Z,101011.06
2022-08-25T04:14:48.076Z,101011.44
2022-08-25T04:18:11.078Z,101007.47
2022-08-25T04:21:33.067Z,101008.06
2022-08-25T04:24:54.065Z,100996.19
2022-08-25T04:28:16.069Z,100998.94
2022-08-25T04:31:37.101Z,100994.16
2022-08-25T04:34:58.092Z,100989.41
2022-08-25T04:38:19.118Z,100992.41
2022-08-25T04:41:40.065Z,100994.75
2022-08-25T04:45:01.108Z,100992.63
2022-08-25T04:48:22.089Z,100995.38
2022-08-25T04:51:49.102Z,100994.06
2022-08-25T04:55:10.122Z,100986.41
2022-08-25T04:58:31.111Z,100991.56
2022-08-25T05:01:56.138Z,100982.84
2022-08-25T05:05:17.101Z,100984.97
2022-08-25T05:08:38.082Z,100981.53
2022-08-25T05:11:59.089Z,100985.09
2022-08-25T05:15:33.083Z,100986.75
2022-08-25T05:18:55.096Z,100985.72
2022-08-25T05:22:16.083Z,100975.59
2022-08-25T05:25:38.124Z,100975.38
2022-08-25T05:28:59.093Z,100978.84
2022-08-25T05:32:20.103Z,100977.06
2022-08-25T05:35:41.100Z,100972.56
2022-08-25T05:39:02.124Z,100968.50
2022-08-25T05:42:23.083Z,100967.09
2022-08-25T05:45:38.170Z,100974.50
2022-08-25T05:49:00.090Z,100978.19
2022-08-25T05:52:21.110Z,100961.44
2022-08-25T05:55:42.087Z,100958.72
2022-08-25T05:59:07.333Z,100963.44
2022-08-25T06:02:48.111Z,100957.84
2022-08-25T06:06:19.096Z,100958.00
2022-08-25T06:09:40.123Z,100955.78
2022-08-25T06:13:02.123Z,100960.75
2022-08-25T06:16:23.234Z,100960.16
2022-08-25T06:19:44.109Z,100961.13
2022-08-25T06:23:05.123Z,100954.91
2022-08-25T06:26:27.110Z,100958.00
2022-08-25T06:29:48.135Z,100966.94
2022-08-25T06:33:14.107Z,100956.44
2022-08-25T06:36:35.148Z,100951.28
2022-08-25T06:39:56.213Z,100962.44
2022-08-25T06:43:18.125Z,100960.47
2022-08-25T06:46:41.160Z,100954.47
2022-08-25T06:50:02.138Z,100948.78
2022-08-25T06:53:23.130Z,100947.06
2022-08-25T06:56:44.188Z,100949.03
2022-08-25T07:00:05.118Z,100954.25
2022-08-25T07:03:26.227Z,100946.63
2022-08-25T07:06:48.129Z,100940.25
2022-08-25T07:10:09.145Z,100940.88
2022-08-25T07:13:30.130Z,100947.38
2022-08-25T07:16:52.140Z,100942.69
2022-08-25T07:20:13.655Z,100942.50
2022-08-25T07:23:35.155Z,100936.13
2022-08-25T07:26:57.132Z,100935.66
2022-08-25T07:30:20.146Z,100936.00
2022-08-25T07:33:41.124Z,100937.16
2022-08-25T07:37:02.142Z,100920.66
2022-08-25T07:40:32.202Z,100929.63
2022-08-25T07:43:46.154Z,100931.31
2022-08-25T07:47:07.165Z,100934.53
2022-08-25T07:50:28.196Z,100933.53
2022-08-25T07:53:49.187Z,100932.22
2022-08-25T07:57:10.147Z,100923.72
2022-08-25T08:00:34.152Z,100920.78
2022-08-25T08:04:02.913Z,100916.03
2022-08-25T08:07:41.139Z,100913.13
2022-08-25T08:11:05.434Z,100908.34
2022-08-25T08:14:26.151Z,100902.75
2022-08-25T08:17:47.155Z,100904.66
2022-08-25T08:21:09.173Z,100903.88
2022-08-25T08:24:44.234Z,100894.00
2022-08-25T08:28:07.245Z,100887.03
2022-08-25T08:31:28.195Z,100892.69
2022-08-25T08:34:51.383Z,100884.66
2022-08-25T08:38:18.499Z,100885.75
2022-08-25T08:42:26.175Z,100883.88
2022-08-25T08:45:50.183Z,100875.56
2022-08-25T08:49:13.227Z,100878.25
2022-08-25T08:53:02.192Z,100876.13
2022-08-25T08:56:30.655Z,100874.00
2022-08-25T09:00:03.192Z,100870.53
2022-08-25T09:03:37.259Z,100869.69
2022-08-25T09:07:02.171Z,100863.22
2022-08-25T09:10:24.159Z,100863.75
2022-08-25T09:14:09.184Z,100856.75
2022-08-25T09:18:09.550Z,100853.56
2022-08-25T09:21:36.182Z,100855.09
2022-08-25T09:25:54.214Z,100850.97
2022-08-25T09:29:16.540Z,100846.84
2022-08-25T09:33:12.997Z,100845.69
2022-08-25T09:37:05.983Z,100839.22
2022-08-25T09:40:33.431Z,100834.91
2022-08-25T09:44:06.175Z,100839.91
2022-08-25T09:47:39.189Z,100833.63
2022-08-25T09:51:03.311Z,100834.19
2022-08-25T09:54:44.396Z,100826.28
2022-08-25T09:58:10.225Z,100821.47
2022-08-25T10:01:35.232Z,100817.28
2022-08-25T10:04:56.217Z,100825.44
2022-08-25T10:08:26.207Z,100820.63
2022-08-25T10:11:57.450Z,100814.09
2022-08-25T10:15:34.230Z,100814.53
2022-08-25T10:18:55.201Z,100805.16
2022-08-25T10:22:25.190Z,100801.59
2022-08-25T10:25:57.806Z,100809.03
2022-08-25T10:29:25.189Z,100803.06
2022-08-25T10:32:58.205Z,100801.19
2022-08-25T10:36:29.248Z,100791.00
2022-08-25T10:39:59.228Z,100789.31
2022-08-25T10:43:44.234Z,100790.25
2022-08-25T10:47:16.200Z,100788.31
2022-08-25T10:51:12.614Z,100785.06
2022-08-25T10:54:40.190Z,100780.75
2022-08-25T10:58:30.773Z,100784.78
2022-08-25T11:02:24.227Z,100784.03
2022-08-25T11:06:10.207Z,100768.41
2022-08-25T11:09:39.252Z,100768.03
2022-08-25T11:13:11.368Z,100772.16
2022-08-25T11:16:41.279Z,100765.66
2022-08-25T11:20:07.198Z,100759.69
2022-08-25T11:23:36.214Z,100750.50
2022-08-25T11:27:07.211Z,100747.66
2022-08-25T11:30:31.286Z,100743.69
2022-08-25T11:33:52.212Z,100739.41
2022-08-25T11:37:44.223Z,100728.78
2022-08-25T11:41:25.203Z,100732.59
2022-08-25T11:45:20.266Z,100726.88
2022-08-25T11:49:08.227Z,100719.09
2022-08-25T11:52:47.202Z,100721.22
2022-08-25T11:56:12.240Z,100717.72
2022-08-25T12:00:06.236Z,100714.38
2022-08-25T12:04:00.304Z,100723.81
2022-08-25T12:07:22.020Z,100713.47
2022-08-25T12:11:11.166Z,100712.94
2022-08-25T12:14:38.233Z,100702.50
2022-08-25T12:17:59.312Z,100706.06
2022-08-25T12:21:20.249Z,100700.78
2022-08-25T12:24:57.232Z,100693.44
2022-08-25T12:28:35.237Z,100702.22
2022-08-25T12:32:13.232Z,100691.53
2022-08-25T12:35:38.251Z,100689.19
2022-08-25T12:39:03.223Z,100678.44
2022-08-25T12:42:37.811Z,100675.84
2022-08-25T12:46:36.236Z,100680.38
2022-08-25T12:49:57.234Z,100667.41
2022-08-25T12:53:42.240Z,100669.59
2022-08-25T12:57:14.226Z,100670.13
2022-08-25T13:00:40.282Z,100664.09
2022-08-25T13:04:44.234Z,100658.81
2022-08-25T13:08:05.391Z,100658.91
2022-08-25T13:11:57.218Z,100656.31
2022-08-25T13:15:18.247Z,100649.69
2022-08-25T13:18:42.232Z,100641.31
2022-08-25T13:22:03.279Z,100656.25
2022-08-25T13:25:35.262Z,100648.31
2022-08-25T13:29:09.181Z,100637.00
2022-08-25T13:32:40.307Z,100632.31
2022-08-25T13:36:22.246Z,100636.38
2022-08-25T13:39:56.483Z,100636.63
2022-08-25T13:43:27.568Z,100622.06
2022-08-25T13:46:48.289Z,100630.53
2022-08-25T13:50:30.268Z,100619.88
2022-08-25T13:53:52.307Z,100623.88
2022-08-25T13:57:31.237Z,100614.06
2022-08-25T14:00:59.542Z,100610.88
2022-08-25T14:04:51.741Z,100606.16
2022-08-25T14:08:23.361Z,100604.28
2022-08-25T14:12:11.259Z,100605.75
2022-08-25T14:15:33.433Z,100601.44
2022-08-25T14:19:08.270Z,100599.66
2022-08-25T14:22:29.288Z,100596.16
2022-08-25T14:25:50.271Z,100595.44
2022-08-25T14:29:11.330Z,100599.03
2022-08-25T14:32:32.281Z,100594.97
2022-08-25T14:35:57.258Z,100586.34
2022-08-25T14:39:18.262Z,100591.31
2022-08-25T14:42:39.274Z,100583.69
2022-08-25T14:46:02.579Z,100584.25
2022-08-25T14:49:27.254Z,100583.81
2022-08-25T14:52:48.293Z,100577.50
2022-08-25T14:56:14.305Z,100583.84
2022-08-25T14:59:35.262Z,100578.72
2022-08-25T15:02:58.270Z,100568.72
2022-08-25T15:06:19.349Z,100569.59
2022-08-25T15:09:40.261Z,100570.00
2022-08-25T15:13:01.261Z,100569.63
2022-08-25T15:16:24.321Z,100567.84
2022-08-25T15:19:56.308Z,100569.88
2022-08-25T15:23:17.292Z,100563.91
2022-08-25T15:26:38.322Z,100560.25
2022-08-25T15:29:59.328Z,100557.63
2022-08-25T15:33:29.279Z,100554.03
2022-08-25T15:36:51.294Z,100553.19
2022-08-25T15:40:12.373Z,100548.66
2022-08-25T15:43:33.310Z,100555.81
2022-08-25T15:46:56.264Z,100559.38
2022-08-25T15:50:26.201Z,100551.53
2022-08-25T15:53:48.342Z,100559.81
2022-08-25T15:57:13.964Z,100563.31
2022-08-25T16:00:45.299Z,100559.88
2022-08-25T16:04:17.274Z,100554.25
2022-08-25T16:07:38.272Z,100568.72
2022-08-25T16:10:59.293Z,100563.63
2022-08-25T16:14:21.262Z,100563.22
2022-08-25T16:17:43.643Z,100565.19
2022-08-25T16:21:06.287Z,100567.63
2022-08-25T16:24:33.334Z,100568.91
2022-08-25T16:27:59.296Z,100571.78
2022-08-25T16:31:23.331Z,100573.53
2022-08-25T16:34:45.321Z,100568.53
2022-08-25T16:38:08.291Z,100571.53
2022-08-25T16:41:40.312Z,100567.28
2022-08-25T16:45:02.310Z,100568.91
2022-08-25T16:48:26.338Z,100571.84
2022-08-25T16:51:49.293Z,100575.56
2022-08-25T16:55:21.294Z,100577.16
2022-08-25T16:58:43.299Z,100574.69
2022-08-25T17:02:07.374Z,100576.50
2022-08-25T17:05:28.284Z,100580.22
2022-08-25T17:08:50.306Z,100588.13
2022-08-25T17:12:11.296Z,100590.22
2022-08-25T17:15:32.332Z,100586.63
2022-08-25T17:18:53.292Z,100585.25
2022-08-25T17:22:15.316Z,100589.19
2022-08-25T17:25:36.304Z,100586.41
2022-08-25T17:28:55.315Z,100577.00
2022-08-25T17:32:17.298Z,100584.66
2022-08-25T17:35:38.307Z,100582.72
2022-08-25T17:38:59.294Z,100583.75
2022-08-25T17:42:20.349Z,100580.47
2022-08-25T17:46:01.342Z,100578.53
2022-08-25T17:49:24.324Z,100583.00
2022-08-25T17:52:46.461Z,100584.78
2022-08-25T17:56:17.330Z,100582.91
2022-08-25T17:59:39.327Z,100591.38
2022-08-25T18:03:01.338Z,100582.53
2022-08-25T18:06:22.375Z,100583.28
2022-08-25T18:09:43.323Z,100582.19
2022-08-25T18:13:04.339Z,100583.22
2022-08-25T18:16:26.334Z,100580.00
2022-08-25T18:19:47.334Z,100579.44
2022-08-25T18:23:09.823Z,100581.25
2022-08-25T18:26:31.352Z,100583.06
2022-08-25T18:29:52.329Z,100585.69
2022-08-25T18:33:13.345Z,100581.91
2022-08-25T18:36:38.674Z,100583.19
2022-08-25T18:40:18.416Z,100587.19
2022-08-25T18:43:39.325Z,100584.13
2022-08-25T18:47:00.350Z,100579.47
2022-08-25T18:50:28.334Z,100574.81
2022-08-25T18:53:50.244Z,100570.16
2022-08-25T18:57:11.326Z,100575.34
2022-08-25T19:00:35.334Z,100578.44
2022-08-25T19:03:56.364Z,100576.25
2022-08-25T19:07:19.356Z,100574.03
2022-08-25T19:10:42.343Z,100576.00
2022-08-25T19:14:04.347Z,100563.78
2022-08-25T19:17:37.426Z,100569.56
2022-08-25T19:20:51.386Z,100572.78
2022-08-25T19:24:13.390Z,100565.63
2022-08-25T19:27:34.351Z,100569.69
2022-08-25T19:30:55.402Z,100565.38
2022-08-25T19:34:16.347Z,100570.88
2022-08-25T19:37:39.354Z,100564.13
2022-08-25T19:41:01.356Z,100572.81
2022-08-25T19:44:23.365Z,100562.81
2022-08-25T19:47:48.342Z,100567.50
2022-08-25T19:51:09.372Z,100577.16
2022-08-25T19:54:44.396Z,100570.63
2022-08-25T19:58:05.350Z,100570.22
2022-08-25T20:01:26.469Z,100560.19
2022-08-25T20:04:49.394Z,100563.47
2022-08-25T20:08:12.363Z,100563.63
2022-08-25T20:11:33.362Z,100566.44
2022-08-25T20:14:54.363Z,100567.38
2022-08-25T20:18:15.376Z,100566.25
2022-08-25T20:21:37.605Z,100557.03
2022-08-25T20:24:58.689Z,100562.28
2022-08-25T20:28:19.389Z,100552.59
2022-08-25T20:31:40.377Z,100559.16
2022-08-25T20:35:02.405Z,100565.16
2022-08-25T20:38:24.373Z,100558.72
2022-08-25T20:41:48.242Z,100561.81
2022-08-25T20:45:09.376Z,100559.66
2022-08-25T20:48:30.404Z,100568.06
2022-08-25T20:51:51.377Z,100565.88
2022-08-25T20:55:12.441Z,100563.47
2022-08-25T20:58:33.372Z,100562.09
2022-08-25T21:01:55.469Z,100565.22
2022-08-25T21:05:16.366Z,100564.88
2022-08-25T21:08:37.396Z,100564.06
2022-08-25T21:12:08.429Z,100566.16
2022-08-25T21:15:29.392Z,100565.00
2022-08-25T21:18:50.404Z,100569.16
2022-08-25T21:22:12.404Z,100565.00
2022-08-25T21:25:33.387Z,100567.81
2022-08-25T21:28:54.395Z,100567.09
2022-08-25T21:32:09.392Z,100571.25
2022-08-25T21:35:30.404Z,100568.50
2022-08-25T21:38:51.388Z,100572.59
2022-08-25T21:42:13.451Z,100575.59
2022-08-25T21:45:35.933Z,100571.22
2022-08-25T21:48:57.411Z,100573.31
2022-08-25T21:52:21.393Z,100580.09
2022-08-25T21:55:42.395Z,100577.78
2022-08-25T21:59:03.386Z,100576.38
2022-08-25T22:02:33.451Z,100570.72
2022-08-25T22:05:55.392Z,100574.88
2022-08-25T22:09:21.386Z,100573.16
2022-08-25T22:12:42.380Z,100566.09
2022-08-25T22:16:03.444Z,100572.31
2022-08-25T22:19:28.429Z,100570.09
2022-08-25T22:22:49.424Z,100568.72
2022-08-25T22:26:10.437Z,100571.81
2022-08-25T22:29:32.412Z,100572.03
2022-08-25T22:32:46.413Z,100573.09
2022-08-25T22:36:07.406Z,100567.22
2022-08-25T22:39:31.422Z,100569.25
2022-08-25T22:42:52.443Z,100566.47
2022-08-25T22:46:15.448Z,100567.50
2022-08-25T22:49:42.415Z,100570.13
2022-08-25T22:53:04.502Z,100571.19
2022-08-25T22:56:27.414Z,100571.03
2022-08-25T22:59:48.426Z,100577.38
2022-08-25T23:03:11.493Z,100567.78
2022-08-25T23:06:35.426Z,100571.94
2022-08-25T23:09:56.417Z,100575.63
2022-08-25T23:13:33.863Z,100575.25
2022-08-25T23:16:56.463Z,100571.44
2022-08-25T23:20:37.442Z,100567.84
2022-08-25T23:24:07.428Z,100561.25
2022-08-25T23:27:24.435Z,100565.97
2022-08-25T23:30:54.549Z,100567.78
2022-08-25T23:34:20.442Z,100557.28
2022-08-25T23:37:34.465Z,100558.56
2022-08-25T23:40:56.476Z,100568.31
2022-08-25T23:44:18.588Z,100572.81
2022-08-25T23:47:39.447Z,100570.84
2022-08-25T23:51:01.452Z,100571.25
2022-08-25T23:54:31.167Z,100571.25
2022-08-25T23:57:52.456Z,100578.63
